createdAt,value
2023-02-19T00:01:16.113Z,3.10
2023-02-19T00:03:47.835Z,5.10
2023-02-19T00:06:14.639Z,9.30
2023-02-19T00:08:41.472Z,6.10
2023-02-19T00:11:11.842Z,8.20
2023-02-19T00:13:41.274Z,4.10
2023-02-19T00:16:12.452Z,4.60
2023-02-19T00:18:39.593Z,3.80
2023-02-19T00:21:06.605Z,3.70
2023-02-19T00:23:34.213Z,2.80
2023-02-19T00:26:17.597Z,2.50
2023-02-19T00:31:23.728Z,3.20
2023-02-19T00:33:53.519Z,3.40
2023-02-19T00:36:21.430Z,3.90
2023-02-19T00:38:48.822Z,2.40
2023-02-19T00:41:20.037Z,3.70
2023-02-19T00:43:56.565Z,4.60
2023-02-19T00:46:34.011Z,2.10
2023-02-19T00:49:01.566Z,3.20
2023-02-19T00:51:31.532Z,3.70
2023-02-19T00:53:58.990Z,3.40
2023-02-19T00:56:26.237Z,4.00
2023-02-19T00:58:53.574Z,4.90
2023-02-19T01:01:21.339Z,4.80
2023-02-19T01:03:48.338Z,6.80
2023-02-19T01:06:17.424Z,4.20
2023-02-19T01:08:44.767Z,5.10
2023-02-19T01:11:12.566Z,5.20
2023-02-19T01:13:40.018Z,4.90
2023-02-19T01:16:15.655Z,3.90
2023-02-19T01:18:43.226Z,4.10
2023-02-19T01:21:15.432Z,3.40
2023-02-19T01:23:42.605Z,3.10
2023-02-19T01:26:14.078Z,4.00
2023-02-19T01:28:40.915Z,4.60
2023-02-19T01:31:12.180Z,5.20
2023-02-19T01:33:39.587Z,3.90
2023-02-19T01:36:07.399Z,4.90
2023-02-19T01:38:34.291Z,4.10
2023-02-19T01:41:05.012Z,6.80
2023-02-19T01:43:33.634Z,4.10
2023-02-19T01:46:01.478Z,5.20
2023-02-19T01:48:36.035Z,6.20
2023-02-19T01:51:09.605Z,5.40
2023-02-19T01:53:40.135Z,4.00
2023-02-19T01:56:08.543Z,4.50
2023-02-19T01:58:37.162Z,5.80
2023-02-19T02:01:07.421Z,5.30
2023-02-19T02:03:38.014Z,4.70
2023-02-19T02:06:11.591Z,4.70
2023-02-19T02:08:54.219Z,5.60
2023-02-19T02:11:21.595Z,4.40
2023-02-19T02:13:49.196Z,5.10
2023-02-19T02:16:31.458Z,5.30
2023-02-19T02:19:12.065Z,6.50
2023-02-19T02:21:45.963Z,4.60
2023-02-19T02:24:43.591Z,5.10
2023-02-19T02:27:42.421Z,5.80
2023-02-19T02:30:39.923Z,4.80
2023-02-19T02:33:30.848Z,5.10
2023-02-19T02:36:03.745Z,6.50
2023-02-19T02:38:33.404Z,6.70
2023-02-19T02:41:01.063Z,9.10
2023-02-19T02:43:29.074Z,5.10
2023-02-19T02:45:56.008Z,6.10
2023-02-19T02:48:41.647Z,7.60
2023-02-19T02:51:29.698Z,7.90
2023-02-19T02:54:27.965Z,9.50
2023-02-19T02:56:56.608Z,8.70
2023-02-19T02:59:27.929Z,7.00
2023-02-19T03:02:14.970Z,8.00
2023-02-19T03:05:04.878Z,6.00
2023-02-19T03:07:39.006Z,8.20
2023-02-19T03:10:10.433Z,7.50
2023-02-19T03:12:56.336Z,6.40
2023-02-19T03:15:40.626Z,5.50
2023-02-19T03:18:27.248Z,6.10
2023-02-19T03:20:58.137Z,7.00
2023-02-19T03:23:45.621Z,5.60
2023-02-19T03:26:14.150Z,4.60
2023-02-19T03:29:05.172Z,4.70
2023-02-19T03:31:33.621Z,4.50
2023-02-19T03:34:05.540Z,4.90
2023-02-19T03:36:39.684Z,5.90
2023-02-19T03:39:09.249Z,4.90
2023-02-19T03:41:43.582Z,7.20
2023-02-19T03:44:20.172Z,5.80
2023-02-19T03:47:03.738Z,5.80
2023-02-19T03:49:48.886Z,4.60
2023-02-19T03:52:32.284Z,5.70
2023-02-19T03:55:20.106Z,5.60
2023-02-19T03:58:08.382Z,7.20
2023-02-19T04:00:50.337Z,6.60
2023-02-19T04:03:28.297Z,8.60
2023-02-19T04:06:02.201Z,6.00
2023-02-19T04:08:32.120Z,5.90
2023-02-19T04:11:03.447Z,5.50
2023-02-19T04:13:38.838Z,6.40
2023-02-19T04:16:15.002Z,5.60
2023-02-19T04:18:46.935Z,6.00
2023-02-19T04:21:15.664Z,6.20
2023-02-19T04:23:44.855Z,5.50
2023-02-19T04:26:15.191Z,5.30
2023-02-19T04:28:44.238Z,4.10
2023-02-19T04:31:11.701Z,5.60
2023-02-19T04:33:38.766Z,4.30
2023-02-19T04:36:07.205Z,6.30
2023-02-19T04:38:33.917Z,6.10
2023-02-19T04:41:00.725Z,4.90
2023-02-19T04:43:27.536Z,6.20
2023-02-19T04:45:54.467Z,3.90
2023-02-19T04:48:21.319Z,3.60
2023-02-19T04:50:48.700Z,3.50
2023-02-19T04:53:15.482Z,3.50
2023-02-19T04:55:42.229Z,4.30
2023-02-19T04:58:08.992Z,4.10
2023-02-19T05:00:35.805Z,3.60
2023-02-19T05:03:02.539Z,3.20
2023-02-19T05:05:29.440Z,3.90
2023-02-19T05:07:56.236Z,3.10
2023-02-19T05:10:23.250Z,3.50
2023-02-19T05:12:50.168Z,5.90
2023-02-19T05:15:16.910Z,6.20
2023-02-19T05:17:43.691Z,7.50
2023-02-19T05:20:10.787Z,9.90
2023-02-19T05:22:37.613Z,10.70
2023-02-19T05:25:05.024Z,10.40
2023-02-19T05:27:32.362Z,9.80
2023-02-19T05:29:59.178Z,7.40
2023-02-19T05:32:26.056Z,10.30
2023-02-19T05:34:52.915Z,11.00
2023-02-19T05:37:19.772Z,8.60
2023-02-19T05:39:46.504Z,9.90
2023-02-19T05:42:15.122Z,8.20
2023-02-19T05:44:42.753Z,9.20
2023-02-19T05:47:09.776Z,10.60
2023-02-19T05:49:36.585Z,8.00
2023-02-19T05:52:04.742Z,8.70
2023-02-19T05:54:31.856Z,8.90
2023-02-19T05:56:58.982Z,9.30
2023-02-19T05:59:27.574Z,8.80
2023-02-19T06:01:55.784Z,10.10
2023-02-19T06:04:23.605Z,12.20
2023-02-19T06:06:50.727Z,9.70
2023-02-19T06:09:17.854Z,7.60
2023-02-19T06:11:45.129Z,9.40
2023-02-19T06:14:14.005Z,9.00
2023-02-19T06:16:41.141Z,8.00
2023-02-19T06:19:08.071Z,9.10
2023-02-19T06:21:35.389Z,6.20
2023-02-19T06:24:07.612Z,7.10
2023-02-19T06:26:34.533Z,8.50
2023-02-19T06:29:01.482Z,9.00
2023-02-19T06:31:28.607Z,12.40
2023-02-19T06:33:55.479Z,8.30
2023-02-19T06:36:22.397Z,8.60
2023-02-19T06:38:49.375Z,7.20
2023-02-19T06:41:16.608Z,5.20
2023-02-19T06:43:43.500Z,5.30
2023-02-19T06:46:12.107Z,5.70
2023-02-19T06:48:40.651Z,4.20
2023-02-19T06:51:08.154Z,4.10
2023-02-19T06:53:34.948Z,4.00
2023-02-19T06:56:05.701Z,3.10
2023-02-19T06:58:33.754Z,2.40
2023-02-19T07:01:00.641Z,3.70
2023-02-19T07:03:27.543Z,3.90
2023-02-19T07:05:54.500Z,3.90
2023-02-19T07:08:21.637Z,3.10
2023-02-19T07:10:57.103Z,4.00
2023-02-19T07:13:25.229Z,3.50
2023-02-19T07:15:52.367Z,3.30
2023-02-19T07:18:19.495Z,4.80
2023-02-19T07:20:46.262Z,4.50
2023-02-19T07:23:13.086Z,4.00
2023-02-19T07:25:40.228Z,6.00
2023-02-19T07:28:07.934Z,4.80
2023-02-19T07:30:35.406Z,5.10
2023-02-19T07:33:02.431Z,7.30
2023-02-19T07:35:29.435Z,7.10
2023-02-19T07:37:56.185Z,8.00
2023-02-19T07:40:22.982Z,8.60
2023-02-19T07:42:49.776Z,6.70
2023-02-19T07:45:17.219Z,8.70
2023-02-19T07:47:44.112Z,7.90
2023-02-19T07:50:13.692Z,9.40
2023-02-19T07:52:41.027Z,7.00
2023-02-19T07:55:07.931Z,7.80
2023-02-19T07:57:34.682Z,6.50
2023-02-19T08:00:01.644Z,10.40
2023-02-19T08:02:44.201Z,9.20
2023-02-19T08:05:11.095Z,12.50
2023-02-19T08:07:38.067Z,9.30
2023-02-19T08:10:21.209Z,11.10
2023-02-19T08:13:12.208Z,11.50
2023-02-19T08:15:39.093Z,12.50
2023-02-19T08:18:05.834Z,14.20
2023-02-19T08:20:32.591Z,14.40
2023-02-19T08:22:59.425Z,14.50
2023-02-19T08:25:26.286Z,12.90
2023-02-19T08:27:53.033Z,14.50
2023-02-19T08:30:19.908Z,12.00
2023-02-19T08:32:46.790Z,13.30
2023-02-19T08:35:13.661Z,12.40
2023-02-19T08:37:40.483Z,13.60
2023-02-19T08:40:07.468Z,11.80
2023-02-19T08:42:34.477Z,20.00
2023-02-19T08:45:01.305Z,18.80
2023-02-19T08:47:28.105Z,15.90
2023-02-19T08:49:54.831Z,14.90
2023-02-19T08:52:21.614Z,10.70
2023-02-19T08:54:48.449Z,10.70
2023-02-19T08:57:15.391Z,11.20
2023-02-19T08:59:42.169Z,9.30
2023-02-19T09:02:09.660Z,11.70
2023-02-19T09:04:37.833Z,12.00
2023-02-19T09:07:07.949Z,8.00
2023-02-19T09:09:37.735Z,9.20
2023-02-19T09:12:06.036Z,11.70
2023-02-19T09:14:34.820Z,16.60
2023-02-19T09:17:03.032Z,16.30
2023-02-19T09:19:30.429Z,15.90
2023-02-19T09:21:57.419Z,16.60
2023-02-19T09:24:25.179Z,18.30
2023-02-19T09:26:53.455Z,14.20
2023-02-19T09:29:22.382Z,12.70
2023-02-19T09:31:49.359Z,16.00
2023-02-19T09:34:16.110Z,18.20
2023-02-19T09:36:42.920Z,15.40
2023-02-19T09:39:12.474Z,17.90
2023-02-19T09:41:46.567Z,16.00
2023-02-19T09:44:19.432Z,15.80
2023-02-19T09:46:50.050Z,20.50
2023-02-19T09:49:28.145Z,16.10
2023-02-19T09:52:00.424Z,17.50
2023-02-19T09:54:30.356Z,30.60
2023-02-19T09:57:01.529Z,24.10
2023-02-19T09:59:33.597Z,18.60
2023-02-19T10:02:11.240Z,16.10
2023-02-19T10:04:41.980Z,12.80
2023-02-19T10:07:19.744Z,7.00
2023-02-19T10:09:55.188Z,6.50
2023-02-19T10:12:27.471Z,6.60
2023-02-19T10:15:01.530Z,6.00
2023-02-19T10:17:34.715Z,4.90
2023-02-19T10:20:04.460Z,4.60
2023-02-19T10:22:34.038Z,4.10
2023-02-19T10:25:00.897Z,5.50
2023-02-19T10:27:31.423Z,4.90
2023-02-19T10:30:00.490Z,4.70
2023-02-19T10:32:29.562Z,5.00
2023-02-19T10:35:13.753Z,5.80
2023-02-19T10:37:50.621Z,5.20
2023-02-19T10:40:20.868Z,3.50
2023-02-19T10:42:50.795Z,4.50
2023-02-19T10:45:28.607Z,4.90
2023-02-19T10:47:56.576Z,4.90
2023-02-19T10:50:28.265Z,4.50
2023-02-19T10:52:58.299Z,5.80
2023-02-19T10:55:29.225Z,5.70
2023-02-19T10:57:57.231Z,4.20
2023-02-19T11:00:30.417Z,7.90
2023-02-19T11:03:14.906Z,7.00
2023-02-19T11:08:24.139Z,7.70
2023-02-19T11:10:51.224Z,8.70
2023-02-19T11:13:31.031Z,5.30
2023-02-19T11:15:59.848Z,6.00
2023-02-19T11:18:30.720Z,4.90
2023-02-19T11:21:07.270Z,6.00
2023-02-19T11:23:45.058Z,5.50
2023-02-19T11:26:20.637Z,5.90
2023-02-19T11:28:56.613Z,8.80
2023-02-19T11:31:29.019Z,10.80
2023-02-19T11:33:58.044Z,11.20
2023-02-19T11:36:30.472Z,8.20
2023-02-19T11:39:07.237Z,5.60
2023-02-19T11:41:59.301Z,5.50
2023-02-19T11:44:43.188Z,5.60
2023-02-19T11:47:28.170Z,5.60
2023-02-19T11:50:10.589Z,7.50
2023-02-19T11:52:43.489Z,4.30
2023-02-19T11:55:25.716Z,3.60
2023-02-19T11:58:09.055Z,4.60
2023-02-19T12:00:49.768Z,4.70
2023-02-19T12:03:56.020Z,7.20
2023-02-19T12:06:38.844Z,6.40
2023-02-19T12:09:33.054Z,5.90
2023-02-19T12:12:07.130Z,8.00
2023-02-19T12:18:38.513Z,6.80
2023-02-19T12:21:22.132Z,7.30
2023-02-19T12:23:54.282Z,6.50
2023-02-19T12:26:52.506Z,6.00
2023-02-19T12:29:35.804Z,5.70
2023-02-19T12:32:28.208Z,5.80
2023-02-19T12:35:11.239Z,4.60
2023-02-19T12:37:39.033Z,6.00
2023-02-19T12:40:30.186Z,8.30
2023-02-19T12:43:00.322Z,5.50
2023-02-19T12:45:36.622Z,5.40
2023-02-19T12:48:11.715Z,4.00
2023-02-19T12:50:40.551Z,5.60
2023-02-19T12:53:30.536Z,5.20
2023-02-19T12:55:59.652Z,6.40
2023-02-19T12:58:35.551Z,5.20
2023-02-19T13:01:04.000Z,4.60
2023-02-19T13:03:34.369Z,6.70
2023-02-19T13:06:24.646Z,4.90
2023-02-19T13:09:06.514Z,4.90
2023-02-19T13:11:46.789Z,3.90
2023-02-19T13:14:24.518Z,4.10
2023-02-19T13:17:00.296Z,6.90
2023-02-19T13:19:27.092Z,7.30
2023-02-19T13:22:21.081Z,5.20
2023-02-19T13:24:49.713Z,6.70
2023-02-19T13:27:35.440Z,8.20
2023-02-19T13:30:17.637Z,7.40
2023-02-19T13:32:55.976Z,9.90
2023-02-19T13:35:32.113Z,7.60
2023-02-19T13:38:02.739Z,10.70
2023-02-19T13:40:33.301Z,8.30
2023-02-19T13:43:02.814Z,9.20
2023-02-19T13:45:33.203Z,9.80
2023-02-19T13:48:03.216Z,7.20
2023-02-19T13:50:33.344Z,8.20
2023-02-19T13:53:02.275Z,11.40
2023-02-19T13:55:46.707Z,10.90
2023-02-19T13:58:37.638Z,11.20
2023-02-19T14:01:10.565Z,9.20
2023-02-19T14:03:37.581Z,10.40
2023-02-19T14:06:07.208Z,8.30
2023-02-19T14:08:49.490Z,10.50
2023-02-19T14:11:17.004Z,9.00
2023-02-19T14:13:51.409Z,8.90
2023-02-19T14:16:35.097Z,9.60
2023-02-19T14:19:01.953Z,19.00
2023-02-19T14:21:44.092Z,16.00
2023-02-19T14:24:15.100Z,12.70
2023-02-19T14:26:42.455Z,12.90
2023-02-19T14:29:14.798Z,14.20
2023-02-19T14:31:45.543Z,9.60
2023-02-19T14:34:23.113Z,12.40
2023-02-19T14:37:01.406Z,8.50
2023-02-19T14:39:33.245Z,16.90
2023-02-19T14:42:05.771Z,15.80
2023-02-19T14:44:47.357Z,14.50
2023-02-19T14:47:18.324Z,10.90
2023-02-19T14:49:50.742Z,13.10
2023-02-19T14:52:25.608Z,11.00
2023-02-19T14:55:04.285Z,11.90
2023-02-19T14:57:36.110Z,13.50
2023-02-19T15:00:22.006Z,10.20
2023-02-19T15:02:51.009Z,6.70
2023-02-19T15:05:22.091Z,10.20
2023-02-19T15:07:49.920Z,7.30
2023-02-19T15:10:18.870Z,13.10
2023-02-19T15:12:51.825Z,12.60
2023-02-19T15:15:23.246Z,6.40
2023-02-19T15:17:53.034Z,11.70
2023-02-19T15:20:25.801Z,9.00
2023-02-19T15:22:54.763Z,7.70
2023-02-19T15:25:24.416Z,11.30
2023-02-19T15:27:51.227Z,10.90
2023-02-19T15:30:22.329Z,7.50
2023-02-19T15:32:54.118Z,8.80
2023-02-19T15:35:22.883Z,8.60
2023-02-19T15:37:51.027Z,10.10
2023-02-19T15:40:20.759Z,7.80
2023-02-19T15:42:48.113Z,9.50
2023-02-19T15:45:16.289Z,10.80
2023-02-19T15:47:50.409Z,10.50
2023-02-19T15:53:04.558Z,10.50
2023-02-19T15:55:40.729Z,11.00
2023-02-19T15:58:13.710Z,10.70
2023-02-19T16:00:56.120Z,7.60
2023-02-19T16:03:25.418Z,42.80
2023-02-19T16:06:11.384Z,33.50
2023-02-19T16:08:40.621Z,33.10
2023-02-19T16:11:23.945Z,43.30
2023-02-19T16:13:52.043Z,23.20
2023-02-19T16:16:25.852Z,13.00
2023-02-19T16:21:24.658Z,11.30
2023-02-19T16:24:01.929Z,11.20
2023-02-19T16:26:29.155Z,11.80
2023-02-19T16:29:22.164Z,10.50
2023-02-19T16:31:52.229Z,12.30
2023-02-19T16:34:34.398Z,10.50
2023-02-19T16:37:02.762Z,9.80
2023-02-19T16:39:29.999Z,8.80
2023-02-19T16:42:00.300Z,11.20
2023-02-19T16:44:28.055Z,13.80
2023-02-19T16:46:58.111Z,15.80
2023-02-19T16:49:25.134Z,13.00
2023-02-19T16:51:52.404Z,15.00
2023-02-19T16:54:19.209Z,16.60
2023-02-19T16:57:01.669Z,21.60
2023-02-19T16:59:28.487Z,12.20
2023-02-19T17:01:55.247Z,9.50
2023-02-19T17:04:22.349Z,22.60
2023-02-19T17:06:49.356Z,38.10
2023-02-19T17:09:16.351Z,114.40
2023-02-19T17:11:43.234Z,152.70
2023-02-19T17:14:10.270Z,77.80
2023-02-19T17:16:40.662Z,52.40
2023-02-19T17:19:16.117Z,21.40
2023-02-19T17:21:43.383Z,101.80
2023-02-19T17:24:11.254Z,31.90
2023-02-19T17:26:38.094Z,24.30
2023-02-19T17:29:06.842Z,23.40
2023-02-19T17:31:34.359Z,26.70
2023-02-19T17:34:01.248Z,24.20
2023-02-19T17:36:30.950Z,28.10
2023-02-19T17:38:59.117Z,23.70
2023-02-19T17:41:26.552Z,28.10
2023-02-19T17:43:53.632Z,26.20
2023-02-19T17:46:24.489Z,21.50
2023-02-19T17:48:52.704Z,24.50
2023-02-19T17:51:19.638Z,21.20
2023-02-19T17:53:47.507Z,23.00
2023-02-19T17:56:18.474Z,20.00
2023-02-19T17:59:00.821Z,22.70
2023-02-19T18:01:27.917Z,24.10
2023-02-19T18:03:54.810Z,19.80
2023-02-19T18:06:21.596Z,22.80
2023-02-19T18:08:50.409Z,23.30
2023-02-19T18:11:17.749Z,17.70
2023-02-19T18:13:44.603Z,19.40
2023-02-19T18:16:11.877Z,27.10
2023-02-19T18:18:38.869Z,26.50
2023-02-19T18:21:09.726Z,29.50
2023-02-19T18:23:37.546Z,24.10
2023-02-19T18:26:10.346Z,29.50
2023-02-19T18:28:38.490Z,20.20
2023-02-19T18:31:05.861Z,22.20
2023-02-19T18:33:34.417Z,24.00
2023-02-19T18:36:01.369Z,20.40
2023-02-19T18:38:28.296Z,25.20
2023-02-19T18:40:56.389Z,23.50
2023-02-19T18:43:24.826Z,26.50
2023-02-19T18:45:51.783Z,27.40
2023-02-19T18:48:18.830Z,29.00
2023-02-19T18:50:45.736Z,29.50
2023-02-19T18:53:14.023Z,32.40
2023-02-19T18:55:42.297Z,34.30
2023-02-19T18:58:09.511Z,44.20
2023-02-19T19:00:37.427Z,35.20
2023-02-19T19:03:05.259Z,38.40
2023-02-19T19:05:32.321Z,48.00
2023-02-19T19:07:59.803Z,31.20
2023-02-19T19:10:27.502Z,31.30
2023-02-19T19:12:54.651Z,32.10
2023-02-19T19:15:22.399Z,28.10
2023-02-19T19:17:49.812Z,35.90
2023-02-19T19:20:19.983Z,28.60
2023-02-19T19:22:54.915Z,27.20
2023-02-19T19:25:23.149Z,49.30
2023-02-19T19:28:08.631Z,42.20
2023-02-19T19:30:35.752Z,40.00
2023-02-19T19:33:03.733Z,45.70
2023-02-19T19:35:30.784Z,29.40
2023-02-19T19:37:57.620Z,34.50
2023-02-19T19:40:24.473Z,28.90
2023-02-19T19:42:52.722Z,28.80
2023-02-19T19:45:20.653Z,26.80
2023-02-19T19:47:48.907Z,46.70
2023-02-19T19:50:18.280Z,38.30
2023-02-19T19:52:45.183Z,48.30
2023-02-19T19:55:11.960Z,39.00
2023-02-19T19:57:40.857Z,39.60
2023-02-19T20:00:09.293Z,31.70
2023-02-19T20:02:39.430Z,35.70
2023-02-19T20:05:06.895Z,37.50
2023-02-19T20:07:34.166Z,34.50
2023-02-19T20:10:00.920Z,27.10
2023-02-19T20:12:28.006Z,33.20
2023-02-19T20:14:55.158Z,25.00
2023-02-19T20:17:22.251Z,17.00
2023-02-19T20:19:49.052Z,24.60
2023-02-19T20:22:16.418Z,24.70
2023-02-19T20:24:43.195Z,25.10
2023-02-19T20:27:09.937Z,34.00
2023-02-19T20:29:36.848Z,53.60
2023-02-19T20:32:04.062Z,31.40
2023-02-19T20:34:31.508Z,18.80
2023-02-19T20:36:59.721Z,24.80
2023-02-19T20:39:29.246Z,21.50
2023-02-19T20:41:57.990Z,21.70
2023-02-19T20:44:26.339Z,23.40
2023-02-19T20:46:54.249Z,25.10
2023-02-19T20:49:38.120Z,19.40
2023-02-19T20:52:07.421Z,44.60
2023-02-19T20:54:35.811Z,21.50
2023-02-19T20:57:04.812Z,24.50
2023-02-19T20:59:35.553Z,18.20
2023-02-19T21:02:06.346Z,20.00
2023-02-19T21:04:34.103Z,19.10
2023-02-19T21:07:01.079Z,20.60
2023-02-19T21:09:28.582Z,16.40
2023-02-19T21:11:55.321Z,28.30
2023-02-19T21:14:22.190Z,25.30
2023-02-19T21:17:04.460Z,23.80
2023-02-19T21:19:31.320Z,29.50
2023-02-19T21:22:13.510Z,29.10
2023-02-19T21:24:40.219Z,29.80
2023-02-19T21:27:07.120Z,23.80
2023-02-19T21:29:34.118Z,29.20
2023-02-19T21:32:01.401Z,55.20
2023-02-19T21:34:29.978Z,43.50
2023-02-19T21:36:57.864Z,29.70
2023-02-19T21:39:25.846Z,24.90
2023-02-19T21:41:52.832Z,42.10
2023-02-19T21:44:21.245Z,28.50
2023-02-19T21:46:48.637Z,23.40
2023-02-19T21:49:15.549Z,42.30
2023-02-19T21:51:44.167Z,23.90
2023-02-19T21:54:24.886Z,26.10
2023-02-19T21:56:53.059Z,25.80
2023-02-19T21:59:23.702Z,21.80
2023-02-19T22:01:50.796Z,28.90
2023-02-19T22:04:21.288Z,24.00
2023-02-19T22:06:48.409Z,22.00
2023-02-19T22:09:15.217Z,27.20
2023-02-19T22:11:42.482Z,26.60
2023-02-19T22:14:09.311Z,55.80
2023-02-19T22:16:36.095Z,25.30
2023-02-19T22:19:03.974Z,23.20
2023-02-19T22:21:33.160Z,28.70
2023-02-19T22:24:01.525Z,24.80
2023-02-19T22:26:32.430Z,27.30
2023-02-19T22:28:59.868Z,25.80
2023-02-19T22:31:27.872Z,29.90
2023-02-19T22:33:57.095Z,29.20
2023-02-19T22:36:27.696Z,20.20
2023-02-19T22:38:54.897Z,26.00
2023-02-19T22:41:22.251Z,87.20
2023-02-19T22:43:50.118Z,22.70
2023-02-19T22:46:21.289Z,24.70
2023-02-19T22:48:48.531Z,24.70
2023-02-19T22:51:18.736Z,25.70
2023-02-19T22:53:47.499Z,25.90
2023-02-19T22:56:16.848Z,31.20
2023-02-19T22:58:44.092Z,23.40
2023-02-19T23:01:12.527Z,23.10
2023-02-19T23:03:56.336Z,23.10
2023-02-19T23:06:26.032Z,24.50
2023-02-19T23:08:54.719Z,24.80
2023-02-19T23:11:26.000Z,29.90
2023-02-19T23:13:53.585Z,27.10
2023-02-19T23:16:20.804Z,23.90
2023-02-19T23:18:48.240Z,26.20
2023-02-19T23:21:16.853Z,26.80
2023-02-19T23:23:45.314Z,22.70
2023-02-19T23:26:13.735Z,25.60
2023-02-19T23:28:41.947Z,22.50
2023-02-19T23:31:09.848Z,23.90
2023-02-19T23:33:36.865Z,22.80
2023-02-19T23:36:04.055Z,21.80
2023-02-19T23:38:30.874Z,26.70
2023-02-19T23:40:58.987Z,24.50
2023-02-19T23:43:25.772Z,24.60
2023-02-19T23:45:52.941Z,18.20
2023-02-19T23:48:19.781Z,23.40
2023-02-19T23:50:46.525Z,34.80
2023-02-19T23:53:13.258Z,34.30
2023-02-19T23:55:40.071Z,22.30
2023-02-19T23:58:06.862Z,20.90
